createdAt,value
2023-04-30T00:00:34.198Z,7.62
2023-04-30T00:15:34.059Z,7.27
2023-04-30T00:30:33.859Z,7.01
2023-04-30T00:45:33.751Z,6.66
2023-04-30T01:00:33.528Z,6.28
2023-04-30T01:15:33.360Z,6.04
2023-04-30T01:30:33.366Z,6.03
2023-04-30T01:45:33.060Z,5.98
2023-04-30T02:00:32.927Z,6.14
2023-04-30T02:15:32.814Z,6.00
2023-04-30T02:30:32.577Z,6.13
2023-04-30T02:45:32.502Z,5.70
2023-04-30T03:00:32.285Z,5.56
2023-04-30T03:15:32.185Z,5.35
2023-04-30T03:30:32.339Z,4.91
2023-04-30T03:45:33.807Z,4.88
2023-04-30T04:00:34.312Z,5.07
2023-04-30T04:15:31.577Z,5.32
2023-04-30T04:30:31.345Z,5.46
2023-04-30T04:45:31.153Z,5.50
2023-04-30T05:00:31.029Z,5.68
2023-04-30T05:15:30.877Z,5.86
2023-04-30T05:30:30.682Z,5.98
2023-04-30T05:45:30.553Z,6.71
2023-04-30T06:00:30.470Z,6.69
2023-04-30T06:15:30.199Z,7.69
2023-04-30T06:30:30.062Z,9.94
2023-04-30T06:45:29.980Z,10.12
2023-04-30T07:00:32.161Z,11.03
2023-04-30T07:15:29.609Z,11.24
2023-04-30T07:30:29.435Z,11.62
2023-04-30T07:45:29.345Z,12.15
2023-04-30T08:00:29.339Z,10.99
2023-04-30T08:15:29.561Z,11.86
2023-04-30T08:30:28.780Z,12.26
2023-04-30T08:45:28.620Z,12.31
2023-04-30T09:00:28.927Z,13.04
2023-04-30T09:15:28.288Z,12.60
2023-04-30T09:30:28.211Z,13.62
2023-04-30T09:45:28.005Z,12.95
2023-04-30T10:00:27.884Z,13.87
2023-04-30T10:15:27.597Z,14.20
2023-04-30T10:30:28.002Z,14.25
2023-04-30T10:45:28.338Z,14.25
2023-04-30T11:00:27.114Z,14.69
2023-04-30T11:15:26.983Z,14.81
2023-04-30T11:30:26.796Z,14.80
2023-04-30T11:45:26.759Z,15.01
2023-04-30T12:00:26.476Z,14.99
2023-04-30T12:15:26.487Z,15.03
2023-04-30T12:30:26.148Z,15.01
2023-04-30T12:45:27.010Z,15.15
2023-04-30T13:00:26.906Z,15.49
2023-04-30T13:15:25.759Z,15.81
2023-04-30T13:30:25.570Z,16.16
2023-04-30T13:45:25.451Z,16.22
2023-04-30T14:00:25.437Z,16.22
2023-04-30T14:15:25.032Z,15.57
2023-04-30T14:30:25.821Z,16.18
2023-04-30T14:45:26.122Z,16.20
2023-04-30T15:00:27.535Z,16.03
2023-04-30T15:15:24.391Z,16.09
2023-04-30T15:30:24.336Z,16.50
2023-04-30T15:45:24.150Z,15.75
2023-04-30T16:00:23.955Z,14.98
2023-04-30T16:15:25.495Z,15.60
2023-04-30T16:30:31.523Z,14.84
2023-04-30T16:45:23.514Z,14.90
2023-04-30T17:00:28.569Z,14.53
2023-04-30T17:15:24.053Z,14.02
2023-04-30T17:30:23.013Z,13.94
2023-04-30T17:45:22.907Z,13.20
2023-04-30T18:00:22.778Z,12.26
2023-04-30T18:15:24.945Z,11.36
2023-04-30T18:30:22.484Z,10.30
2023-04-30T18:45:23.225Z,9.50
2023-04-30T19:00:21.994Z,8.84
2023-04-30T19:15:21.834Z,8.30
2023-04-30T19:30:21.689Z,7.74
2023-04-30T19:45:21.654Z,7.59
2023-04-30T20:00:21.363Z,7.29
2023-04-30T20:15:21.216Z,6.94
2023-04-30T20:30:21.040Z,6.84
2023-04-30T20:45:20.989Z,6.51
2023-04-30T21:00:20.727Z,6.38
2023-04-30T21:15:20.578Z,6.00
2023-04-30T21:30:20.861Z,5.66
2023-04-30T21:45:20.339Z,5.45
2023-04-30T22:00:20.060Z,5.07
2023-04-30T22:15:19.913Z,4.96
2023-04-30T22:30:19.776Z,4.59
2023-04-30T22:45:19.608Z,4.51
2023-04-30T23:00:19.429Z,4.26
2023-04-30T23:15:19.258Z,4.04
2023-04-30T23:30:19.109Z,3.88
2023-04-30T23:45:18.930Z,3.72
